sensor_id;sensor_type;location;lat;lon;timestamp;temperature;humidity
12111;DHT22;6119;52.372;8.990;2024-03-02T00:02:19;9.50;99.90
12111;DHT22;6119;52.372;8.990;2024-03-02T00:05:06;9.50;99.90
12111;DHT22;6119;52.372;8.990;2024-03-02T00:07:55;9.40;99.90
12111;DHT22;6119;52.372;8.990;2024-03-02T00:10:43;9.40;99.90
12111;DHT22;6119;52.372;8.990;2024-03-02T00:13:30;9.40;99.90
12111;DHT22;6119;52.372;8.990;2024-03-02T00:16:17;9.30;99.90
12111;DHT22;6119;52.372;8.990;2024-03-02T00:19:05;9.30;99.90
12111;DHT22;6119;52.372;8.990;2024-03-02T00:21:53;9.20;99.90
12111;DHT22;6119;52.372;8.990;2024-03-02T00:24:40;9.20;99.90
12111;DHT22;6119;52.372;8.990;2024-03-02T00:27:28;9.10;99.90
12111;DHT22;6119;52.372;8.990;2024-03-02T00:30:45;9.10;99.90
12111;DHT22;6119;52.372;8.990;2024-03-02T00:33:40;9.00;99.90
12111;DHT22;6119;52.372;8.990;2024-03-02T00:36:28;9.00;99.90
12111;DHT22;6119;52.372;8.990;2024-03-02T00:39:15;8.90;99.90
12111;DHT22;6119;52.372;8.990;2024-03-02T00:42:04;8.90;99.90
12111;DHT22;6119;52.372;8.990;2024-03-02T00:44:53;8.80;99.90
12111;DHT22;6119;52.372;8.990;2024-03-02T00:47:39;8.80;99.90
12111;DHT22;6119;52.372;8.990;2024-03-02T00:50:26;8.80;99.90
12111;DHT22;6119;52.372;8.990;2024-03-02T00:53:17;8.80;99.90
12111;DHT22;6119;52.372;8.990;2024-03-02T00:56:09;8.70;99.90
12111;DHT22;6119;52.372;8.990;2024-03-02T00:58:57;8.60;99.90
12111;DHT22;6119;52.372;8.990;2024-03-02T01:01:47;8.60;99.90
12111;DHT22;6119;52.372;8.990;2024-03-02T01:04:34;8.60;99.90
12111;DHT22;6119;52.372;8.990;2024-03-02T01:07:21;8.60;99.90
12111;DHT22;6119;52.372;8.990;2024-03-02T01:10:08;8.50;99.90
12111;DHT22;6119;52.372;8.990;2024-03-02T01:12:55;8.60;99.90
12111;DHT22;6119;52.372;8.990;2024-03-02T01:15:41;8.60;99.90
12111;DHT22;6119;52.372;8.990;2024-03-02T01:18:30;8.60;99.90
12111;DHT22;6119;52.372;8.990;2024-03-02T01:21:17;8.60;99.90
12111;DHT22;6119;52.372;8.990;2024-03-02T01:24:04;8.60;99.90
12111;DHT22;6119;52.372;8.990;2024-03-02T01:26:51;8.60;99.90
12111;DHT22;6119;52.372;8.990;2024-03-02T01:29:38;8.50;99.90
12111;DHT22;6119;52.372;8.990;2024-03-02T01:32:24;8.50;99.90
12111;DHT22;6119;52.372;8.990;2024-03-02T01:35:12;8.50;99.90
12111;DHT22;6119;52.372;8.990;2024-03-02T01:38:00;8.50;99.90
12111;DHT22;6119;52.372;8.990;2024-03-02T01:40:46;8.50;99.90
12111;DHT22;6119;52.372;8.990;2024-03-02T01:43:33;8.60;99.90
12111;DHT22;6119;52.372;8.990;2024-03-02T01:46:24;8.60;99.90
12111;DHT22;6119;52.372;8.990;2024-03-02T01:49:10;8.60;99.90
12111;DHT22;6119;52.372;8.990;2024-03-02T01:51:58;8.60;99.90
12111;DHT22;6119;52.372;8.990;2024-03-02T01:54:45;8.60;99.90
12111;DHT22;6119;52.372;8.990;2024-03-02T01:57:32;8.60;99.90
12111;DHT22;6119;52.372;8.990;2024-03-02T02:00:20;8.70;99.90
12111;DHT22;6119;52.372;8.990;2024-03-02T02:03:07;8.70;99.90
12111;DHT22;6119;52.372;8.990;2024-03-02T02:05:54;8.70;99.90
12111;DHT22;6119;52.372;8.990;2024-03-02T02:08:42;8.70;99.90
12111;DHT22;6119;52.372;8.990;2024-03-02T02:11:28;8.70;99.90
12111;DHT22;6119;52.372;8.990;2024-03-02T02:14:15;8.70;99.90
12111;DHT22;6119;52.372;8.990;2024-03-02T02:17:01;8.70;99.90
12111;DHT22;6119;52.372;8.990;2024-03-02T02:19:48;8.70;99.90
12111;DHT22;6119;52.372;8.990;2024-03-02T02:22:36;8.70;99.90
12111;DHT22;6119;52.372;8.990;2024-03-02T02:25:23;8.70;99.90
12111;DHT22;6119;52.372;8.990;2024-03-02T02:28:09;8.60;99.90
12111;DHT22;6119;52.372;8.990;2024-03-02T02:30:56;8.60;99.90
12111;DHT22;6119;52.372;8.990;2024-03-02T02:33:43;8.60;99.90
12111;DHT22;6119;52.372;8.990;2024-03-02T02:36:29;8.60;99.90
12111;DHT22;6119;52.372;8.990;2024-03-02T02:39:20;8.60;99.90
12111;DHT22;6119;52.372;8.990;2024-03-02T02:42:07;8.50;99.90
12111;DHT22;6119;52.372;8.990;2024-03-02T02:44:54;8.40;99.90
12111;DHT22;6119;52.372;8.990;2024-03-02T02:47:41;8.40;99.90
12111;DHT22;6119;52.372;8.990;2024-03-02T02:50:28;8.40;99.90
12111;DHT22;6119;52.372;8.990;2024-03-02T02:53:14;8.40;99.90
12111;DHT22;6119;52.372;8.990;2024-03-02T02:56:03;8.30;99.90
12111;DHT22;6119;52.372;8.990;2024-03-02T02:58:49;8.30;99.90
12111;DHT22;6119;52.372;8.990;2024-03-02T03:01:36;8.20;99.90
12111;DHT22;6119;52.372;8.990;2024-03-02T03:04:23;8.30;99.90
12111;DHT22;6119;52.372;8.990;2024-03-02T03:07:10;8.30;99.90
12111;DHT22;6119;52.372;8.990;2024-03-02T03:09:57;8.30;99.90
12111;DHT22;6119;52.372;8.990;2024-03-02T03:12:44;8.30;99.90
12111;DHT22;6119;52.372;8.990;2024-03-02T03:15:32;8.20;99.90
12111;DHT22;6119;52.372;8.990;2024-03-02T03:18:18;8.30;99.90
12111;DHT22;6119;52.372;8.990;2024-03-02T03:21:05;8.20;99.90
12111;DHT22;6119;52.372;8.990;2024-03-02T03:23:52;8.30;99.90
12111;DHT22;6119;52.372;8.990;2024-03-02T03:26:39;8.30;99.90
12111;DHT22;6119;52.372;8.990;2024-03-02T03:29:27;8.30;99.90
12111;DHT22;6119;52.372;8.990;2024-03-02T03:32:14;8.30;99.90
12111;DHT22;6119;52.372;8.990;2024-03-02T03:35:02;8.30;99.90
12111;DHT22;6119;52.372;8.990;2024-03-02T03:37:49;8.30;99.90
12111;DHT22;6119;52.372;8.990;2024-03-02T03:40:36;8.30;99.90
12111;DHT22;6119;52.372;8.990;2024-03-02T03:43:23;8.20;99.90
12111;DHT22;6119;52.372;8.990;2024-03-02T03:46:11;8.30;99.90
12111;DHT22;6119;52.372;8.990;2024-03-02T03:48:58;8.20;99.90
12111;DHT22;6119;52.372;8.990;2024-03-02T03:51:45;8.20;99.90
12111;DHT22;6119;52.372;8.990;2024-03-02T03:54:32;8.10;99.90
12111;DHT22;6119;52.372;8.990;2024-03-02T03:57:19;8.10;99.90
12111;DHT22;6119;52.372;8.990;2024-03-02T04:00:07;8.20;99.90
12111;DHT22;6119;52.372;8.990;2024-03-02T04:02:57;8.10;99.90
12111;DHT22;6119;52.372;8.990;2024-03-02T04:05:43;8.00;99.90
12111;DHT22;6119;52.372;8.990;2024-03-02T04:08:30;8.10;99.90
12111;DHT22;6119;52.372;8.990;2024-03-02T04:11:17;8.00;99.90
12111;DHT22;6119;52.372;8.990;2024-03-02T04:14:03;7.90;99.90
12111;DHT22;6119;52.372;8.990;2024-03-02T04:16:51;7.90;99.90
12111;DHT22;6119;52.372;8.990;2024-03-02T04:19:39;7.90;99.90
12111;DHT22;6119;52.372;8.990;2024-03-02T04:22:26;7.90;99.90
12111;DHT22;6119;52.372;8.990;2024-03-02T04:25:13;7.80;99.90
12111;DHT22;6119;52.372;8.990;2024-03-02T04:28:00;7.80;99.90
12111;DHT22;6119;52.372;8.990;2024-03-02T04:30:47;7.80;99.90
12111;DHT22;6119;52.372;8.990;2024-03-02T04:33:33;7.80;99.90
12111;DHT22;6119;52.372;8.990;2024-03-02T04:36:21;7.80;99.90
12111;DHT22;6119;52.372;8.990;2024-03-02T04:39:09;7.80;99.90
12111;DHT22;6119;52.372;8.990;2024-03-02T04:41:56;7.80;99.90
12111;DHT22;6119;52.372;8.990;2024-03-02T04:44:43;7.90;99.90
12111;DHT22;6119;52.372;8.990;2024-03-02T04:47:30;7.90;99.90
12111;DHT22;6119;52.372;8.990;2024-03-02T04:50:17;7.80;99.90
12111;DHT22;6119;52.372;8.990;2024-03-02T04:53:06;7.80;99.90
12111;DHT22;6119;52.372;8.990;2024-03-02T04:55:53;7.90;99.90
12111;DHT22;6119;52.372;8.990;2024-03-02T04:59:16;7.90;99.90
12111;DHT22;6119;52.372;8.990;2024-03-02T05:02:03;7.90;99.90
12111;DHT22;6119;52.372;8.990;2024-03-02T05:04:50;7.80;99.90
12111;DHT22;6119;52.372;8.990;2024-03-02T05:07:36;7.80;99.90
12111;DHT22;6119;52.372;8.990;2024-03-02T05:10:24;7.70;99.90
12111;DHT22;6119;52.372;8.990;2024-03-02T05:13:11;7.80;99.90
12111;DHT22;6119;52.372;8.990;2024-03-02T05:15:57;7.80;99.90
12111;DHT22;6119;52.372;8.990;2024-03-02T05:18:45;7.80;99.90
12111;DHT22;6119;52.372;8.990;2024-03-02T05:21:31;7.70;99.90
12111;DHT22;6119;52.372;8.990;2024-03-02T05:24:18;7.80;99.90
12111;DHT22;6119;52.372;8.990;2024-03-02T05:27:07;7.80;99.90
12111;DHT22;6119;52.372;8.990;2024-03-02T05:29:53;7.80;99.90
12111;DHT22;6119;52.372;8.990;2024-03-02T05:32:40;7.90;99.90
12111;DHT22;6119;52.372;8.990;2024-03-02T05:35:27;7.90;99.90
12111;DHT22;6119;52.372;8.990;2024-03-02T05:38:14;7.90;99.90
12111;DHT22;6119;52.372;8.990;2024-03-02T05:41:01;7.90;99.90
12111;DHT22;6119;52.372;8.990;2024-03-02T05:43:49;7.90;99.90
12111;DHT22;6119;52.372;8.990;2024-03-02T05:46:36;7.90;99.90
12111;DHT22;6119;52.372;8.990;2024-03-02T05:49:25;8.00;99.90
12111;DHT22;6119;52.372;8.990;2024-03-02T05:52:12;7.90;99.90
12111;DHT22;6119;52.372;8.990;2024-03-02T05:54:58;7.90;99.90
12111;DHT22;6119;52.372;8.990;2024-03-02T05:57:45;7.80;99.90
12111;DHT22;6119;52.372;8.990;2024-03-02T06:00:45;7.80;99.90
12111;DHT22;6119;52.372;8.990;2024-03-02T06:03:32;7.80;99.90
12111;DHT22;6119;52.372;8.990;2024-03-02T06:06:19;7.80;99.90
12111;DHT22;6119;52.372;8.990;2024-03-02T06:09:06;7.80;99.90
12111;DHT22;6119;52.372;8.990;2024-03-02T06:11:53;7.80;99.90
12111;DHT22;6119;52.372;8.990;2024-03-02T06:14:40;7.70;99.90
12111;DHT22;6119;52.372;8.990;2024-03-02T06:17:28;7.70;99.90
12111;DHT22;6119;52.372;8.990;2024-03-02T06:20:15;7.70;99.90
12111;DHT22;6119;52.372;8.990;2024-03-02T06:23:02;7.60;99.90
12111;DHT22;6119;52.372;8.990;2024-03-02T06:25:48;7.60;99.90
12111;DHT22;6119;52.372;8.990;2024-03-02T06:28:35;7.60;99.90
12111;DHT22;6119;52.372;8.990;2024-03-02T06:31:21;7.60;99.90
12111;DHT22;6119;52.372;8.990;2024-03-02T06:34:09;6.90;99.90
12111;DHT22;6119;52.372;8.990;2024-03-02T06:36:56;7.60;99.90
12111;DHT22;6119;52.372;8.990;2024-03-02T06:39:43;7.70;99.90
12111;DHT22;6119;52.372;8.990;2024-03-02T06:42:30;7.70;99.90
12111;DHT22;6119;52.372;8.990;2024-03-02T06:45:19;7.80;99.90
12111;DHT22;6119;52.372;8.990;2024-03-02T06:48:06;7.80;99.90
12111;DHT22;6119;52.372;8.990;2024-03-02T06:50:54;7.90;99.90
12111;DHT22;6119;52.372;8.990;2024-03-02T06:53:42;7.90;99.90
12111;DHT22;6119;52.372;8.990;2024-03-02T06:56:29;8.00;99.90
12111;DHT22;6119;52.372;8.990;2024-03-02T06:59:16;8.00;99.90
12111;DHT22;6119;52.372;8.990;2024-03-02T07:02:03;8.10;99.90
12111;DHT22;6119;52.372;8.990;2024-03-02T07:04:50;8.10;99.90
12111;DHT22;6119;52.372;8.990;2024-03-02T07:07:38;8.20;99.90
12111;DHT22;6119;52.372;8.990;2024-03-02T07:10:25;8.20;99.90
12111;DHT22;6119;52.372;8.990;2024-03-02T07:13:12;8.30;99.90
12111;DHT22;6119;52.372;8.990;2024-03-02T07:15:59;8.30;99.90
12111;DHT22;6119;52.372;8.990;2024-03-02T07:19:03;8.40;99.90
12111;DHT22;6119;52.372;8.990;2024-03-02T07:21:50;8.50;99.90
12111;DHT22;6119;52.372;8.990;2024-03-02T07:24:41;8.50;99.90
12111;DHT22;6119;52.372;8.990;2024-03-02T07:27:28;8.60;99.90
12111;DHT22;6119;52.372;8.990;2024-03-02T07:30:15;8.60;99.90
12111;DHT22;6119;52.372;8.990;2024-03-02T07:33:03;8.70;99.90
12111;DHT22;6119;52.372;8.990;2024-03-02T07:35:50;8.70;99.90
12111;DHT22;6119;52.372;8.990;2024-03-02T07:38:36;8.70;99.90
12111;DHT22;6119;52.372;8.990;2024-03-02T07:41:24;8.80;99.90
12111;DHT22;6119;52.372;8.990;2024-03-02T07:44:11;8.80;99.90
12111;DHT22;6119;52.372;8.990;2024-03-02T07:47:00;8.80;99.90
12111;DHT22;6119;52.372;8.990;2024-03-02T07:49:46;8.80;99.90
12111;DHT22;6119;52.372;8.990;2024-03-02T07:52:33;8.80;99.90
12111;DHT22;6119;52.372;8.990;2024-03-02T07:55:19;8.90;99.90
12111;DHT22;6119;52.372;8.990;2024-03-02T07:58:07;8.90;99.90
12111;DHT22;6119;52.372;8.990;2024-03-02T08:00:56;8.90;99.90
12111;DHT22;6119;52.372;8.990;2024-03-02T08:03:44;8.90;99.90
12111;DHT22;6119;52.372;8.990;2024-03-02T08:06:33;8.90;99.90
12111;DHT22;6119;52.372;8.990;2024-03-02T08:09:20;9.00;99.90
12111;DHT22;6119;52.372;8.990;2024-03-02T08:12:07;9.00;99.90
12111;DHT22;6119;52.372;8.990;2024-03-02T08:14:55;9.00;99.90
12111;DHT22;6119;52.372;8.990;2024-03-02T08:17:42;9.00;99.90
12111;DHT22;6119;52.372;8.990;2024-03-02T08:20:34;9.00;99.90
12111;DHT22;6119;52.372;8.990;2024-03-02T08:23:21;9.00;99.90
12111;DHT22;6119;52.372;8.990;2024-03-02T08:26:08;9.00;99.90
12111;DHT22;6119;52.372;8.990;2024-03-02T08:28:55;9.00;99.90
12111;DHT22;6119;52.372;8.990;2024-03-02T08:31:44;9.10;99.90
12111;DHT22;6119;52.372;8.990;2024-03-02T08:34:30;9.10;99.90
12111;DHT22;6119;52.372;8.990;2024-03-02T08:37:17;9.10;99.90
12111;DHT22;6119;52.372;8.990;2024-03-02T08:40:05;9.20;99.90
12111;DHT22;6119;52.372;8.990;2024-03-02T08:42:53;9.20;99.90
12111;DHT22;6119;52.372;8.990;2024-03-02T08:45:39;9.30;99.90
12111;DHT22;6119;52.372;8.990;2024-03-02T08:48:28;9.40;99.90
12111;DHT22;6119;52.372;8.990;2024-03-02T08:51:15;9.60;99.90
12111;DHT22;6119;52.372;8.990;2024-03-02T08:54:02;9.70;99.90
12111;DHT22;6119;52.372;8.990;2024-03-02T08:56:49;9.80;99.90
12111;DHT22;6119;52.372;8.990;2024-03-02T08:59:36;10.00;99.90
12111;DHT22;6119;52.372;8.990;2024-03-02T09:02:23;10.10;99.90
12111;DHT22;6119;52.372;8.990;2024-03-02T09:05:12;10.20;99.90
12111;DHT22;6119;52.372;8.990;2024-03-02T09:07:59;10.30;99.90
12111;DHT22;6119;52.372;8.990;2024-03-02T09:10:45;10.50;99.90
12111;DHT22;6119;52.372;8.990;2024-03-02T09:13:33;10.60;99.90
12111;DHT22;6119;52.372;8.990;2024-03-02T09:16:20;10.60;99.90
12111;DHT22;6119;52.372;8.990;2024-03-02T09:19:06;10.60;99.90
12111;DHT22;6119;52.372;8.990;2024-03-02T09:21:56;10.70;99.90
12111;DHT22;6119;52.372;8.990;2024-03-02T09:24:44;10.60;99.90
12111;DHT22;6119;52.372;8.990;2024-03-02T09:27:31;10.70;99.90
12111;DHT22;6119;52.372;8.990;2024-03-02T09:30:18;10.60;99.90
12111;DHT22;6119;52.372;8.990;2024-03-02T09:33:05;10.60;99.90
12111;DHT22;6119;52.372;8.990;2024-03-02T09:35:54;10.80;99.90
12111;DHT22;6119;52.372;8.990;2024-03-02T09:38:42;10.90;99.90
12111;DHT22;6119;52.372;8.990;2024-03-02T09:41:29;10.90;99.90
12111;DHT22;6119;52.372;8.990;2024-03-02T09:44:16;11.10;99.90
12111;DHT22;6119;52.372;8.990;2024-03-02T09:47:06;11.20;99.90
12111;DHT22;6119;52.372;8.990;2024-03-02T09:49:54;11.30;99.90
12111;DHT22;6119;52.372;8.990;2024-03-02T09:52:42;11.40;99.90
12111;DHT22;6119;52.372;8.990;2024-03-02T09:55:30;11.50;99.90
12111;DHT22;6119;52.372;8.990;2024-03-02T09:58:17;11.70;99.90
12111;DHT22;6119;52.372;8.990;2024-03-02T10:01:05;11.70;99.90
12111;DHT22;6119;52.372;8.990;2024-03-02T10:03:53;11.90;99.90
12111;DHT22;6119;52.372;8.990;2024-03-02T10:06:40;12.00;99.90
12111;DHT22;6119;52.372;8.990;2024-03-02T10:09:27;12.10;99.90
12111;DHT22;6119;52.372;8.990;2024-03-02T10:12:17;12.30;99.90
12111;DHT22;6119;52.372;8.990;2024-03-02T10:15:05;12.40;99.90
12111;DHT22;6119;52.372;8.990;2024-03-02T10:17:53;12.40;99.90
12111;DHT22;6119;52.372;8.990;2024-03-02T10:20:40;12.60;99.90
12111;DHT22;6119;52.372;8.990;2024-03-02T10:23:27;12.70;99.90
12111;DHT22;6119;52.372;8.990;2024-03-02T10:26:17;12.80;99.90
12111;DHT22;6119;52.372;8.990;2024-03-02T10:29:05;12.90;99.90
12111;DHT22;6119;52.372;8.990;2024-03-02T10:31:54;13.00;99.90
12111;DHT22;6119;52.372;8.990;2024-03-02T10:34:42;13.00;99.90
12111;DHT22;6119;52.372;8.990;2024-03-02T10:37:29;13.10;99.90
12111;DHT22;6119;52.372;8.990;2024-03-02T10:40:15;13.20;99.90
12111;DHT22;6119;52.372;8.990;2024-03-02T10:43:03;13.40;99.90
12111;DHT22;6119;52.372;8.990;2024-03-02T10:45:54;13.40;99.90
12111;DHT22;6119;52.372;8.990;2024-03-02T10:48:44;13.50;99.90
12111;DHT22;6119;52.372;8.990;2024-03-02T10:51:33;13.70;99.90
12111;DHT22;6119;52.372;8.990;2024-03-02T10:54:22;13.80;99.90
12111;DHT22;6119;52.372;8.990;2024-03-02T10:57:14;13.80;99.90
12111;DHT22;6119;52.372;8.990;2024-03-02T11:00:04;13.80;99.90
12111;DHT22;6119;52.372;8.990;2024-03-02T11:03:05;13.90;99.90
12111;DHT22;6119;52.372;8.990;2024-03-02T11:05:54;14.10;99.90
12111;DHT22;6119;52.372;8.990;2024-03-02T11:08:42;14.00;99.90
12111;DHT22;6119;52.372;8.990;2024-03-02T11:11:32;14.00;99.90
12111;DHT22;6119;52.372;8.990;2024-03-02T11:14:24;14.10;99.90
12111;DHT22;6119;52.372;8.990;2024-03-02T11:17:13;14.20;99.90
12111;DHT22;6119;52.372;8.990;2024-03-02T11:20:04;14.30;99.90
12111;DHT22;6119;52.372;8.990;2024-03-02T11:22:51;14.40;99.90
12111;DHT22;6119;52.372;8.990;2024-03-02T11:25:37;14.50;99.90
12111;DHT22;6119;52.372;8.990;2024-03-02T11:28:35;14.60;99.90
12111;DHT22;6119;52.372;8.990;2024-03-02T11:31:58;14.60;99.90
12111;DHT22;6119;52.372;8.990;2024-03-02T11:34:47;14.60;99.90
12111;DHT22;6119;52.372;8.990;2024-03-02T11:37:36;14.70;99.90
12111;DHT22;6119;52.372;8.990;2024-03-02T11:40:24;14.80;99.90
12111;DHT22;6119;52.372;8.990;2024-03-02T11:43:12;14.80;99.90
12111;DHT22;6119;52.372;8.990;2024-03-02T11:46:00;14.90;99.90
12111;DHT22;6119;52.372;8.990;2024-03-02T11:48:49;15.10;99.90
12111;DHT22;6119;52.372;8.990;2024-03-02T11:51:38;15.30;99.90
12111;DHT22;6119;52.372;8.990;2024-03-02T11:54:39;15.20;99.90
12111;DHT22;6119;52.372;8.990;2024-03-02T11:57:26;15.30;99.90
12111;DHT22;6119;52.372;8.990;2024-03-02T12:00:17;15.20;99.90
12111;DHT22;6119;52.372;8.990;2024-03-02T12:03:05;15.40;99.90
12111;DHT22;6119;52.372;8.990;2024-03-02T12:05:54;15.40;99.90
12111;DHT22;6119;52.372;8.990;2024-03-02T12:08:41;15.50;99.90
12111;DHT22;6119;52.372;8.990;2024-03-02T12:11:29;15.60;99.90
12111;DHT22;6119;52.372;8.990;2024-03-02T12:14:16;15.70;99.90
12111;DHT22;6119;52.372;8.990;2024-03-02T12:17:03;15.50;99.90
12111;DHT22;6119;52.372;8.990;2024-03-02T12:19:51;15.60;99.90
12111;DHT22;6119;52.372;8.990;2024-03-02T12:22:37;15.60;99.90
12111;DHT22;6119;52.372;8.990;2024-03-02T12:25:25;15.70;99.90
12111;DHT22;6119;52.372;8.990;2024-03-02T12:28:13;15.80;99.90
12111;DHT22;6119;52.372;8.990;2024-03-02T12:31:00;15.80;99.90
12111;DHT22;6119;52.372;8.990;2024-03-02T12:33:47;15.70;99.90
12111;DHT22;6119;52.372;8.990;2024-03-02T12:36:37;15.90;99.90
12111;DHT22;6119;52.372;8.990;2024-03-02T12:39:25;16.00;99.90
12111;DHT22;6119;52.372;8.990;2024-03-02T12:42:12;16.00;99.90
12111;DHT22;6119;52.372;8.990;2024-03-02T12:45:00;16.20;99.90
12111;DHT22;6119;52.372;8.990;2024-03-02T12:47:49;16.20;99.90
12111;DHT22;6119;52.372;8.990;2024-03-02T12:50:36;16.10;99.90
12111;DHT22;6119;52.372;8.990;2024-03-02T12:53:22;16.10;99.90
12111;DHT22;6119;52.372;8.990;2024-03-02T12:56:10;16.10;99.90
12111;DHT22;6119;52.372;8.990;2024-03-02T12:58:58;16.10;99.90
12111;DHT22;6119;52.372;8.990;2024-03-02T13:01:51;16.10;99.90
12111;DHT22;6119;52.372;8.990;2024-03-02T13:04:38;16.10;99.90
12111;DHT22;6119;52.372;8.990;2024-03-02T13:07:27;16.20;99.90
12111;DHT22;6119;52.372;8.990;2024-03-02T13:10:13;16.20;99.90
12111;DHT22;6119;52.372;8.990;2024-03-02T13:13:01;16.20;99.90
12111;DHT22;6119;52.372;8.990;2024-03-02T13:15:47;16.30;99.90
12111;DHT22;6119;52.372;8.990;2024-03-02T13:18:35;16.30;99.90
12111;DHT22;6119;52.372;8.990;2024-03-02T13:21:22;16.20;99.90
12111;DHT22;6119;52.372;8.990;2024-03-02T13:24:09;16.10;99.90
12111;DHT22;6119;52.372;8.990;2024-03-02T13:26:56;16.30;99.90
12111;DHT22;6119;52.372;8.990;2024-03-02T13:29:43;16.40;99.90
12111;DHT22;6119;52.372;8.990;2024-03-02T13:32:30;16.40;99.90
12111;DHT22;6119;52.372;8.990;2024-03-02T13:35:18;16.20;99.90
12111;DHT22;6119;52.372;8.990;2024-03-02T13:38:04;16.30;99.90
12111;DHT22;6119;52.372;8.990;2024-03-02T13:40:51;16.30;99.90
12111;DHT22;6119;52.372;8.990;2024-03-02T13:43:38;16.30;99.90
12111;DHT22;6119;52.372;8.990;2024-03-02T13:46:25;16.40;99.90
12111;DHT22;6119;52.372;8.990;2024-03-02T13:49:12;16.50;99.90
12111;DHT22;6119;52.372;8.990;2024-03-02T13:52:00;16.60;99.90
12111;DHT22;6119;52.372;8.990;2024-03-02T13:54:48;16.60;99.90
12111;DHT22;6119;52.372;8.990;2024-03-02T13:57:37;16.60;99.90
12111;DHT22;6119;52.372;8.990;2024-03-02T14:00:24;16.60;99.90
12111;DHT22;6119;52.372;8.990;2024-03-02T14:03:11;16.70;99.90
12111;DHT22;6119;52.372;8.990;2024-03-02T14:05:58;16.70;99.90
12111;DHT22;6119;52.372;8.990;2024-03-02T14:08:46;16.70;99.90
12111;DHT22;6119;52.372;8.990;2024-03-02T14:11:34;16.90;99.90
12111;DHT22;6119;52.372;8.990;2024-03-02T14:14:21;16.70;99.90
12111;DHT22;6119;52.372;8.990;2024-03-02T14:17:08;16.80;99.90
12111;DHT22;6119;52.372;8.990;2024-03-02T14:20:00;16.70;99.90
12111;DHT22;6119;52.372;8.990;2024-03-02T14:22:47;16.80;99.90
12111;DHT22;6119;52.372;8.990;2024-03-02T14:25:35;16.70;99.90
12111;DHT22;6119;52.372;8.990;2024-03-02T14:28:22;16.70;99.90
12111;DHT22;6119;52.372;8.990;2024-03-02T14:31:29;16.70;99.90
12111;DHT22;6119;52.372;8.990;2024-03-02T14:34:16;16.70;99.90
12111;DHT22;6119;52.372;8.990;2024-03-02T14:37:03;16.70;99.90
12111;DHT22;6119;52.372;8.990;2024-03-02T14:39:50;16.90;99.90
12111;DHT22;6119;52.372;8.990;2024-03-02T14:42:39;16.90;99.90
12111;DHT22;6119;52.372;8.990;2024-03-02T14:45:26;16.90;99.90
12111;DHT22;6119;52.372;8.990;2024-03-02T14:48:12;16.80;99.90
12111;DHT22;6119;52.372;8.990;2024-03-02T14:50:59;16.70;99.90
12111;DHT22;6119;52.372;8.990;2024-03-02T14:53:47;16.70;99.90
12111;DHT22;6119;52.372;8.990;2024-03-02T14:56:34;16.70;99.90
12111;DHT22;6119;52.372;8.990;2024-03-02T14:59:22;16.70;99.90
12111;DHT22;6119;52.372;8.990;2024-03-02T15:02:08;16.60;99.90
12111;DHT22;6119;52.372;8.990;2024-03-02T15:04:55;16.30;99.90
12111;DHT22;6119;52.372;8.990;2024-03-02T15:07:42;16.20;99.90
12111;DHT22;6119;52.372;8.990;2024-03-02T15:10:29;16.20;99.90
12111;DHT22;6119;52.372;8.990;2024-03-02T15:13:15;16.20;99.90
12111;DHT22;6119;52.372;8.990;2024-03-02T15:16:04;16.20;99.90
12111;DHT22;6119;52.372;8.990;2024-03-02T15:18:51;16.20;99.90
12111;DHT22;6119;52.372;8.990;2024-03-02T15:21:37;16.10;99.90
12111;DHT22;6119;52.372;8.990;2024-03-02T15:24:25;16.20;99.90
12111;DHT22;6119;52.372;8.990;2024-03-02T15:27:12;16.30;99.90
12111;DHT22;6119;52.372;8.990;2024-03-02T15:29:59;16.50;99.90
12111;DHT22;6119;52.372;8.990;2024-03-02T15:32:47;16.50;99.90
12111;DHT22;6119;52.372;8.990;2024-03-02T15:35:34;16.70;99.90
12111;DHT22;6119;52.372;8.990;2024-03-02T15:38:20;16.70;99.90
12111;DHT22;6119;52.372;8.990;2024-03-02T15:41:17;16.90;99.90
12111;DHT22;6119;52.372;8.990;2024-03-02T15:44:04;16.80;99.90
12111;DHT22;6119;52.372;8.990;2024-03-02T15:46:52;16.80;99.90
12111;DHT22;6119;52.372;8.990;2024-03-02T15:49:40;16.90;99.90
12111;DHT22;6119;52.372;8.990;2024-03-02T15:52:27;17.10;99.90
12111;DHT22;6119;52.372;8.990;2024-03-02T15:55:14;17.10;99.90
12111;DHT22;6119;52.372;8.990;2024-03-02T15:58:01;17.00;99.90
12111;DHT22;6119;52.372;8.990;2024-03-02T16:00:49;17.10;99.90
12111;DHT22;6119;52.372;8.990;2024-03-02T16:03:36;17.10;99.90
12111;DHT22;6119;52.372;8.990;2024-03-02T16:06:24;17.20;99.90
12111;DHT22;6119;52.372;8.990;2024-03-02T16:09:11;17.50;99.90
12111;DHT22;6119;52.372;8.990;2024-03-02T16:11:58;17.60;99.90
12111;DHT22;6119;52.372;8.990;2024-03-02T16:14:44;17.60;99.90
12111;DHT22;6119;52.372;8.990;2024-03-02T16:17:31;17.70;99.90
12111;DHT22;6119;52.372;8.990;2024-03-02T16:20:17;17.50;99.90
12111;DHT22;6119;52.372;8.990;2024-03-02T16:23:05;17.10;99.90
12111;DHT22;6119;52.372;8.990;2024-03-02T16:25:52;16.80;99.90
12111;DHT22;6119;52.372;8.990;2024-03-02T16:28:39;16.60;99.90
12111;DHT22;6119;52.372;8.990;2024-03-02T16:31:26;16.30;99.90
12111;DHT22;6119;52.372;8.990;2024-03-02T16:34:13;16.10;99.90
12111;DHT22;6119;52.372;8.990;2024-03-02T16:37:00;16.00;99.90
12111;DHT22;6119;52.372;8.990;2024-03-02T16:39:50;15.80;99.90
12111;DHT22;6119;52.372;8.990;2024-03-02T16:42:37;15.70;99.90
12111;DHT22;6119;52.372;8.990;2024-03-02T16:45:24;15.70;99.90
12111;DHT22;6119;52.372;8.990;2024-03-02T16:48:10;15.50;99.90
12111;DHT22;6119;52.372;8.990;2024-03-02T16:50:57;15.40;99.90
12111;DHT22;6119;52.372;8.990;2024-03-02T16:53:44;15.20;99.90
12111;DHT22;6119;52.372;8.990;2024-03-02T16:56:38;15.10;99.90
12111;DHT22;6119;52.372;8.990;2024-03-02T16:59:26;15.00;99.90
12111;DHT22;6119;52.372;8.990;2024-03-02T17:02:13;14.90;99.90
12111;DHT22;6119;52.372;8.990;2024-03-02T17:05:00;14.80;99.90
12111;DHT22;6119;52.372;8.990;2024-03-02T17:07:46;14.70;99.90
12111;DHT22;6119;52.372;8.990;2024-03-02T17:10:33;14.70;99.90
12111;DHT22;6119;52.372;8.990;2024-03-02T17:13:21;14.80;99.90
12111;DHT22;6119;52.372;8.990;2024-03-02T17:16:07;14.50;99.90
12111;DHT22;6119;52.372;8.990;2024-03-02T17:18:55;14.50;99.90
12111;DHT22;6119;52.372;8.990;2024-03-02T17:21:43;14.40;99.90
12111;DHT22;6119;52.372;8.990;2024-03-02T17:24:29;14.30;99.90
12111;DHT22;6119;52.372;8.990;2024-03-02T17:27:16;14.30;99.90
12111;DHT22;6119;52.372;8.990;2024-03-02T17:30:06;14.20;99.90
12111;DHT22;6119;52.372;8.990;2024-03-02T17:32:53;14.10;99.90
12111;DHT22;6119;52.372;8.990;2024-03-02T17:35:39;14.10;99.90
12111;DHT22;6119;52.372;8.990;2024-03-02T17:38:26;14.00;99.90
12111;DHT22;6119;52.372;8.990;2024-03-02T17:41:13;14.00;99.90
12111;DHT22;6119;52.372;8.990;2024-03-02T17:44:01;13.90;99.90
12111;DHT22;6119;52.372;8.990;2024-03-02T17:46:49;13.80;99.90
12111;DHT22;6119;52.372;8.990;2024-03-02T17:49:36;13.80;99.90
12111;DHT22;6119;52.372;8.990;2024-03-02T17:52:22;13.60;99.90
12111;DHT22;6119;52.372;8.990;2024-03-02T17:55:09;13.60;99.90
12111;DHT22;6119;52.372;8.990;2024-03-02T17:57:56;13.60;99.90
12111;DHT22;6119;52.372;8.990;2024-03-02T18:00:42;13.50;99.90
12111;DHT22;6119;52.372;8.990;2024-03-02T18:03:31;13.50;99.90
12111;DHT22;6119;52.372;8.990;2024-03-02T18:06:18;13.30;99.90
12111;DHT22;6119;52.372;8.990;2024-03-02T18:09:05;13.30;99.90